Terminal Aerodrome Forecast
Issued by NWS Amarillo, TX

Home | Current Version | Previous Version | Text Only | Print | Product List | Glossary On
Versions: 1 2 3 4 5 6 7 8 9 10 11 12 13 14 15 16 17 18 19 20
790
FTUS44 KAMA 161725
TAFGUY
TAF
KGUY 161725Z 1618/1718 30009KT P6SM FEW020 OVC025
     FM170200 32010KT P6SM SCT025 OVC060
     FM170600 31009KT P6SM BKN035 OVC060=

USA.gov is the U.S. government's official web portal to all federal, state and local government web resources and services.